Time;durP1;ratioP1;P1;durP2;ratioP2;P2;SDS_P1;SDS_P2;PMS_P1;PMS_P2;Temp;Humidity;BMP_temperature;BMP_pressure;BME280_temperature;BME280_humidity;BME280_pressure;Samples;Min_cycle;Max_cycle;Signal;HPM_P1;HPM_P2
2021/04/23 00:02:00;;;;;;;1999.90;999.90;;;5.50;99.90;;;;;;5098051;28;20969;-83
2021/04/23 00:04:27;;;;;;;1999.90;999.90;;;5.50;99.90;;;;;;5097618;28;20497;-83
2021/04/23 00:06:58;;;;;;;1999.90;999.90;;;5.40;99.90;;;;;;5097078;28;20426;-82
2021/04/23 00:09:29;;;;;;;1999.90;999.90;;;5.40;99.90;;;;;;5097625;28;20444;-82
2021/04/23 00:11:58;;;;;;;1999.90;999.90;;;5.30;99.90;;;;;;5106790;28;20452;-83
2021/04/23 00:14:26;;;;;;;1999.90;999.90;;;5.30;99.90;;;;;;5115644;28;20423;-83
2021/04/23 00:16:53;;;;;;;1999.90;999.90;;;5.20;99.90;;;;;;5076745;28;20501;-82
2021/04/23 00:19:22;;;;;;;1999.90;999.90;;;5.20;99.90;;;;;;5083282;28;20478;-82
2021/04/23 00:21:50;;;;;;;1999.90;999.90;;;5.10;99.90;;;;;;5116969;28;20449;-82
2021/04/23 00:24:17;;;;;;;1999.90;999.90;;;5.10;99.90;;;;;;5112588;28;20537;-82
2021/04/23 00:26:44;;;;;;;1999.90;999.90;;;5.00;99.90;;;;;;5099081;28;20476;-83
2021/04/23 00:29:11;;;;;;;1999.90;999.90;;;5.00;99.90;;;;;;5096813;28;20474;-82
2021/04/23 00:31:38;;;;;;;1999.90;999.90;;;4.90;99.90;;;;;;5108441;28;21001;-83
2021/04/23 00:34:07;;;;;;;1999.90;999.90;;;4.80;99.90;;;;;;5096936;28;20828;-84
2021/04/23 00:36:33;;;;;;;1999.90;999.90;;;4.90;99.90;;;;;;5096736;28;20568;-82
2021/04/23 00:39:00;;;;;;;1999.90;999.90;;;4.80;99.90;;;;;;5097108;28;20475;-83
2021/04/23 00:41:32;;;;;;;1999.90;999.90;;;4.80;99.90;;;;;;5097495;28;20445;-82
2021/04/23 00:43:59;;;;;;;1999.90;999.90;;;4.70;99.90;;;;;;5104259;28;20418;-82
2021/04/23 00:46:30;;;;;;;1999.90;999.90;;;4.70;99.90;;;;;;5106853;28;20424;-81
2021/04/23 00:48:57;;;;;;;1999.90;999.90;;;4.60;99.90;;;;;;5108579;28;20502;-80
2021/04/23 00:51:26;;;;;;;1999.90;999.90;;;4.60;99.90;;;;;;5099453;28;20453;-83
2021/04/23 00:53:54;;;;;;;1999.90;999.90;;;4.60;99.90;;;;;;5096494;28;20471;-83
2021/04/23 00:56:22;;;;;;;1999.90;999.90;;;4.60;99.90;;;;;;5096771;28;20892;-83
2021/04/23 00:58:51;;;;;;;1999.90;999.90;;;4.60;99.90;;;;;;5099830;28;20925;-82
2021/04/23 01:01:23;;;;;;;1999.90;999.90;;;4.50;99.90;;;;;;5096340;28;20521;-83
2021/04/23 01:03:49;;;;;;;1999.90;999.90;;;4.50;99.90;;;;;;5096646;28;20543;-83
2021/04/23 01:06:19;;;;;;;1999.90;999.90;;;4.50;99.90;;;;;;5096577;28;20455;-84
2021/04/23 01:08:47;;;;;;;1999.90;999.90;;;4.40;99.90;;;;;;5103172;28;20451;-83
2021/04/23 01:11:15;;;;;;;1999.90;999.90;;;4.40;99.90;;;;;;5116743;28;20448;-83
2021/04/23 01:13:41;;;;;;;1999.90;999.90;;;4.40;99.90;;;;;;5109889;28;20452;-83
2021/04/23 01:16:12;;;;;;;1999.90;999.90;;;4.40;99.90;;;;;;5096269;28;20530;-83
2021/04/23 01:18:40;;;;;;;1999.90;999.90;;;4.30;99.90;;;;;;5107790;28;21199;-83
2021/04/23 01:21:09;;;;;;;1999.90;999.90;;;4.30;99.90;;;;;;5096091;28;20479;-83
2021/04/23 01:23:37;;;;;;;1999.90;999.90;;;4.30;99.90;;;;;;5095485;28;20515;-83
2021/04/23 01:26:05;;;;;;;1999.90;999.90;;;4.20;99.90;;;;;;5096170;28;20847;-83
2021/04/23 01:28:31;;;;;;;1999.90;999.90;;;4.20;99.90;;;;;;5096082;28;20463;-82
2021/04/23 01:30:58;;;;;;;1999.90;999.90;;;4.10;99.90;;;;;;5096058;28;20414;-83
2021/04/23 01:33:25;;;;;;;1999.90;999.90;;;4.10;99.90;;;;;;5095601;28;20461;-82
2021/04/23 01:35:52;;;;;;;1999.90;999.90;;;4.10;99.90;;;;;;5096006;28;20531;-82
2021/04/23 01:38:20;;;;;;;1999.90;999.90;;;4.10;99.90;;;;;;5098235;28;21078;-83
2021/04/23 01:40:48;;;;;;;1999.90;999.90;;;4.10;99.90;;;;;;5101788;28;20447;-83
2021/04/23 01:43:15;;;;;;;1999.90;999.90;;;4.00;99.90;;;;;;5097705;28;20484;-83
2021/04/23 01:45:42;;;;;;;1999.90;999.90;;;4.00;99.90;;;;;;5096165;28;20447;-82
2021/04/23 01:48:09;;;;;;;1999.90;999.90;;;4.00;99.90;;;;;;5096068;28;20510;-83
2021/04/23 01:50:36;;;;;;;1999.90;999.90;;;3.90;99.90;;;;;;5111890;22;20502;-83
2021/04/23 01:53:03;;;;;;;1999.90;999.90;;;3.90;99.90;;;;;;5077952;28;20422;-83
2021/04/23 01:55:30;;;;;;;1999.90;999.90;;;3.90;99.90;;;;;;5089091;28;20412;-84
2021/04/23 01:57:57;;;;;;;1999.90;999.90;;;3.80;99.90;;;;;;5093191;28;20481;-84
2021/04/23 02:00:27;;;;;;;1999.90;999.90;;;3.80;99.90;;;;;;5097600;28;20874;-84
2021/04/23 02:02:54;;;;;;;1999.90;999.90;;;3.80;99.90;;;;;;5076687;28;20422;-82
2021/04/23 02:05:21;;;;;;;1012.90;658.93;;;3.80;99.90;;;;;;5076156;28;20895;-82
2021/04/23 02:07:48;;;;;;;467.73;440.47;;;3.70;99.90;;;;;;5075662;28;20462;-81
2021/04/23 02:10:19;;;;;;;532.47;500.47;;;3.80;99.90;;;;;;5076197;28;20481;-83
2021/04/23 02:12:47;;;;;;;418.00;393.97;;;3.60;99.90;;;;;;5075938;28;20481;-83
2021/04/23 02:15:16;;;;;;;401.90;377.80;;;3.60;99.90;;;;;;5075260;28;20480;-83
2021/04/23 02:17:43;;;;;;;477.03;449.47;;;3.60;99.90;;;;;;5084515;28;20486;-82
2021/04/23 02:20:13;;;;;;;430.93;405.20;;;3.60;99.90;;;;;;5067463;28;20543;-82
2021/04/23 02:22:42;;;;;;;465.70;438.93;;;3.50;99.90;;;;;;5071270;28;20966;-83
2021/04/23 02:25:09;;;;;;;336.97;315.57;;;3.50;99.90;;;;;;5075481;28;20477;-83
2021/04/23 02:27:36;;;;;;;365.80;343.47;;;3.50;99.90;;;;;;5077063;28;20520;-82
2021/04/23 02:30:06;;;;;;;333.23;311.97;;;3.40;99.90;;;;;;5076889;28;20687;-84
2021/04/23 02:32:33;;;;;;;297.90;278.23;;;3.40;99.90;;;;;;5075788;28;20445;-83
2021/04/23 02:35:00;;;;;;;282.17;263.07;;;3.30;99.90;;;;;;5075008;28;20429;-81
2021/04/23 02:37:26;;;;;;;272.03;252.93;;;3.30;99.90;;;;;;5081749;28;20478;-82
2021/04/23 02:39:52;;;;;;;277.90;258.87;;;3.30;99.90;;;;;;5087648;28;20854;-81
2021/04/23 02:42:19;;;;;;;311.87;292.10;;;3.30;99.90;;;;;;5077787;28;20498;-83
2021/04/23 02:44:45;;;;;;;236.33;219.17;;;3.30;99.90;;;;;;5075559;28;20508;-82
2021/04/23 02:47:13;;;;;;;243.67;226.93;;;3.20;99.90;;;;;;5079370;28;20446;-82
2021/04/23 02:49:39;;;;;;;254.27;236.67;;;3.30;99.90;;;;;;5084155;28;20489;-83
2021/04/23 02:52:06;;;;;;;235.50;219.13;;;3.20;99.90;;;;;;5077255;28;20541;-82
2021/04/23 02:54:32;;;;;;;224.47;208.20;;;3.20;99.90;;;;;;5076389;28;20997;-83
2021/04/23 02:56:59;;;;;;;268.27;251.20;;;3.20;99.90;;;;;;5077835;28;20554;-81
2021/04/23 02:59:25;;;;;;;241.23;224.10;;;3.20;99.90;;;;;;5077141;28;20481;-82
2021/04/23 03:01:56;;;;;;;327.37;307.30;;;3.10;99.90;;;;;;5075880;28;20454;-83
2021/04/23 03:04:23;;;;;;;267.97;250.43;;;3.10;99.90;;;;;;5075943;28;20464;-82
2021/04/23 03:06:50;;;;;;;319.77;300.10;;;3.10;99.90;;;;;;5075877;28;20448;-83
2021/04/23 03:09:16;;;;;;;318.40;297.80;;;3.10;99.90;;;;;;5075614;28;20478;-83
2021/04/23 03:11:43;;;;;;;374.75;352.83;;;3.00;99.90;;;;;;5077677;28;20441;-82
2021/04/23 03:14:09;;;;;;;344.63;324.20;;;3.00;99.90;;;;;;5079647;28;20211;-81
2021/04/23 03:16:39;;;;;;;212.93;197.27;;;3.10;99.90;;;;;;5080091;28;20482;-81
2021/04/23 03:19:11;;;;;;;266.57;248.80;;;3.00;99.90;;;;;;5080537;28;20457;-83
2021/04/23 03:21:40;;;;;;;363.17;341.77;;;3.00;99.90;;;;;;5081477;28;20446;-83
2021/04/23 03:24:08;;;;;;;431.23;406.43;;;2.90;99.90;;;;;;5079352;28;20467;-82
2021/04/23 03:26:35;;;;;;;398.97;374.90;;;3.00;99.90;;;;;;5090368;28;20456;-83
2021/04/23 03:29:02;;;;;;;402.10;378.47;;;3.00;99.90;;;;;;5082779;28;20508;-83
2021/04/23 03:31:29;;;;;;;355.27;333.33;;;3.00;99.90;;;;;;5080648;28;20503;-83
2021/04/23 03:33:56;;;;;;;347.70;327.13;;;3.00;99.90;;;;;;5079541;28;20455;-84
2021/04/23 03:36:22;;;;;;;289.00;270.33;;;2.90;99.90;;;;;;5080709;28;20483;-82
2021/04/23 03:38:51;;;;;;;338.47;317.93;;;2.90;99.90;;;;;;5079004;28;20487;-83
2021/04/23 03:41:21;;;;;;;315.93;296.30;;;2.80;99.90;;;;;;5079201;28;21084;-84
2021/04/23 03:43:48;;;;;;;223.03;206.90;;;2.80;99.90;;;;;;5079990;28;20517;-84
2021/04/23 03:46:15;;;;;;;283.03;264.40;;;2.80;99.90;;;;;;5087021;28;20536;-84
2021/04/23 03:48:42;;;;;;;188.87;173.57;;;2.80;99.90;;;;;;5110687;28;20489;-81
2021/04/23 03:51:10;;;;;;;197.17;181.13;;;2.80;99.90;;;;;;5079407;28;20997;-82
2021/04/23 03:53:37;;;;;;;201.13;186.17;;;2.80;99.90;;;;;;5081300;28;20448;-82
2021/04/23 03:56:09;;;;;;;290.53;272.27;;;2.80;99.90;;;;;;5083863;28;20452;-81
2021/04/23 03:58:36;;;;;;;181.30;166.73;;;2.60;99.90;;;;;;5099931;28;20463;-82
2021/04/23 04:01:09;;;;;;;198.77;183.77;;;2.70;99.90;;;;;;5083365;28;20520;-82
2021/04/23 04:03:36;;;;;;;174.30;159.57;;;2.70;99.90;;;;;;5079991;28;20989;-81
2021/04/23 04:06:03;;;;;;;93.67;46.07;;;2.60;99.90;;;;;;5079209;28;20998;-83
2021/04/23 04:08:31;;;;;;;86.90;43.90;;;2.60;99.90;;;;;;5080175;28;20908;-82
2021/04/23 04:10:57;;;;;;;119.53;106.67;;;2.70;99.90;;;;;;5079296;28;20469;-84
2021/04/23 04:13:25;;;;;;;84.67;41.87;;;2.70;99.90;;;;;;5078737;28;20808;-80
2021/04/23 04:15:51;;;;;;;92.03;57.27;;;2.70;99.90;;;;;;5095083;28;20420;-83
2021/04/23 04:18:18;;;;;;;115.90;104.10;;;2.70;99.90;;;;;;5080645;28;20453;-83
2021/04/23 04:20:50;;;;;;;86.97;34.33;;;2.60;99.90;;;;;;5087896;28;20842;-81
2021/04/23 04:23:19;;;;;;;87.57;40.93;;;2.60;99.90;;;;;;5084240;28;20481;-82
2021/04/23 04:25:48;;;;;;;92.33;46.43;;;2.60;99.90;;;;;;5083281;28;20436;-82
2021/04/23 04:28:15;;;;;;;98.73;59.87;;;2.60;99.90;;;;;;5074151;28;20439;-83
2021/04/23 04:30:43;;;;;;;82.47;24.47;;;2.60;99.90;;;;;;5079140;28;20823;-82
2021/04/23 04:33:10;;;;;;;77.30;29.47;;;2.60;99.90;;;;;;5076634;28;20514;-83
2021/04/23 04:35:38;;;;;;;89.33;33.23;;;2.60;99.90;;;;;;5077673;28;20504;-82
2021/04/23 04:38:07;;;;;;;87.87;30.93;;;2.60;99.90;;;;;;5078529;28;20499;-84
2021/04/23 04:40:34;;;;;;;80.67;31.80;;;2.60;99.90;;;;;;5077702;28;20952;-82
2021/04/23 04:43:00;;;;;;;83.53;26.80;;;2.70;99.90;;;;;;5077494;28;20533;-84
2021/04/23 04:45:28;;;;;;;82.70;31.53;;;2.70;99.90;;;;;;5093103;28;20484;-83
2021/04/23 04:47:56;;;;;;;82.63;34.60;;;2.70;99.90;;;;;;5088871;28;20443;-84
2021/04/23 04:50:30;;;;;;;210.13;194.75;;;2.80;99.90;;;;;;5092130;28;20506;-83
2021/04/23 04:52:58;;;;;;;80.53;28.63;;;2.90;99.90;;;;;;5110909;28;20251;-84
2021/04/23 04:55:27;;;;;;;1999.90;999.90;;;3.00;99.90;;;;;;5102966;28;20426;-81
2021/04/23 04:57:53;;;;;;;854.37;507.27;;;6.30;99.90;;;;;;5103006;28;20514;-81
2021/04/23 05:00:20;;;;;;;171.60;157.03;;;8.40;99.90;;;;;;5108238;28;20465;-85
2021/04/23 05:02:47;;;;;;;249.07;232.47;;;8.40;99.90;;;;;;5103549;28;20447;-83
2021/04/23 05:05:16;;;;;;;126.30;114.00;;;7.30;99.90;;;;;;5105206;28;20981;-83
2021/04/23 05:07:42;;;;;;;89.37;21.47;;;6.70;99.90;;;;;;5104888;28;20446;-83
2021/04/23 05:10:10;;;;;;;75.20;13.30;;;6.20;99.90;;;;;;5102107;28;20484;-82
2021/04/23 05:12:36;;;;;;;77.43;17.57;;;5.80;99.90;;;;;;5098610;28;20450;-83
2021/04/23 05:15:03;;;;;;;78.50;14.07;;;5.50;99.90;;;;;;5098381;28;20951;-82
2021/04/23 05:17:29;;;;;;;78.10;14.80;;;5.20;99.90;;;;;;5098335;28;21017;-83
2021/04/23 05:19:56;;;;;;;78.40;14.30;;;5.00;99.90;;;;;;5100766;28;20472;-82
2021/04/23 05:22:23;;;;;;;81.30;17.70;;;4.90;99.90;;;;;;5100257;28;20437;-83
2021/04/23 05:24:49;;;;;;;88.67;15.57;;;4.80;99.90;;;;;;5107819;28;20467;-82
2021/04/23 05:27:16;;;;;;;78.60;16.80;;;4.70;99.90;;;;;;5109896;28;20448;-82
2021/04/23 05:29:42;;;;;;;83.93;16.50;;;4.60;99.90;;;;;;5110390;28;20518;-82
2021/04/23 05:32:08;;;;;;;84.87;19.20;;;4.60;99.90;;;;;;5110395;28;20489;-83
2021/04/23 05:34:35;;;;;;;76.20;13.97;;;4.60;99.90;;;;;;5101508;28;20450;-84
2021/04/23 05:37:01;;;;;;;76.60;15.10;;;4.90;99.90;;;;;;5106143;28;20475;-82
2021/04/23 05:39:29;;;;;;;74.87;12.20;;;4.50;99.90;;;;;;5100379;28;20506;-83
2021/04/23 05:41:55;;;;;;;76.13;12.80;;;4.60;99.90;;;;;;5097509;28;20487;-84
2021/04/23 05:44:22;;;;;;;79.07;14.67;;;4.70;99.90;;;;;;5105967;28;20533;-84
2021/04/23 05:46:48;;;;;;;82.47;14.97;;;4.80;99.90;;;;;;5121996;28;20490;-80
2021/04/23 05:49:14;;;;;;;95.17;29.70;;;4.70;99.90;;;;;;5130943;28;20482;-81
2021/04/23 05:51:41;;;;;;;81.27;16.10;;;4.60;99.90;;;;;;5121825;28;20472;-82
2021/04/23 05:54:07;;;;;;;122.10;109.53;;;4.70;99.90;;;;;;5107864;28;20901;-82
2021/04/23 05:56:35;;;;;;;89.03;28.77;;;4.70;99.90;;;;;;5113624;28;20436;-83
2021/04/23 05:59:01;;;;;;;103.60;76.50;;;4.90;99.90;;;;;;5115764;28;20482;-86
2021/04/23 06:01:27;;;;;;;87.20;20.37;;;5.00;99.90;;;;;;5115734;28;20771;-84
2021/04/23 06:03:54;;;;;;;82.87;20.10;;;5.10;99.90;;;;;;5119857;28;20459;-84
2021/04/23 06:06:20;;;;;;;87.53;16.70;;;5.20;99.90;;;;;;5124626;28;20479;-82
2021/04/23 06:08:46;;;;;;;76.87;15.20;;;5.20;99.90;;;;;;5097470;28;20459;-82
2021/04/23 06:11:16;;;;;;;82.97;15.60;;;5.30;99.90;;;;;;5097853;28;20473;-81
2021/04/23 06:13:45;;;;;;;77.30;12.13;;;5.40;99.90;;;;;;5100464;28;20460;-82
2021/04/23 06:16:12;;;;;;;77.50;11.63;;;5.50;99.90;;;;;;5095671;28;20470;-82
2021/04/23 06:18:39;;;;;;;78.63;11.63;;;5.50;99.90;;;;;;5096968;28;20488;-82
2021/04/23 06:21:06;;;;;;;77.30;11.97;;;5.60;99.90;;;;;;5095821;28;20453;-82
2021/04/23 06:23:33;;;;;;;82.63;12.03;;;5.80;99.90;;;;;;5098635;28;20480;-82
2021/04/23 06:26:00;;;;;;;80.50;12.20;;;5.60;99.90;;;;;;5095223;28;20450;-83
2021/04/23 06:28:27;;;;;;;79.23;13.83;;;5.70;99.90;;;;;;5095856;28;20526;-82
2021/04/23 06:30:55;;;;;;;76.57;10.80;;;5.80;99.90;;;;;;5097236;28;20500;-82
2021/04/23 06:33:24;;;;;;;81.03;11.63;;;5.90;99.90;;;;;;5101956;28;20445;-83
2021/04/23 06:35:51;;;;;;;73.70;10.53;;;6.00;99.90;;;;;;5095724;28;20488;-83
2021/04/23 06:38:17;;;;;;;73.63;11.87;;;6.50;99.90;;;;;;5115298;28;20498;-82
2021/04/23 06:40:44;;;;;;;79.20;15.63;;;6.30;99.90;;;;;;5113236;28;20509;-83
2021/04/23 06:43:11;;;;;;;77.57;18.53;;;6.30;99.90;;;;;;5107577;28;20466;-83
2021/04/23 06:45:38;;;;;;;73.53;11.47;;;6.30;99.90;;;;;;5094014;28;20483;-83
2021/04/23 06:48:10;;;;;;;80.27;17.00;;;6.40;99.90;;;;;;5095537;28;20467;-84
2021/04/23 06:50:36;;;;;;;79.00;17.50;;;6.50;99.90;;;;;;5095061;28;20482;-82
2021/04/23 06:53:04;;;;;;;77.13;12.90;;;6.50;99.90;;;;;;5100098;28;20453;-83
2021/04/23 06:55:31;;;;;;;81.67;15.90;;;6.60;99.90;;;;;;5096216;28;20444;-84
2021/04/23 06:57:57;;;;;;;80.53;12.23;;;6.70;99.90;;;;;;5094364;28;20490;-82
2021/04/23 07:00:26;;;;;;;84.03;13.93;;;6.80;99.90;;;;;;5094862;28;20608;-83
2021/04/23 07:02:53;;;;;;;82.13;20.07;;;7.00;99.90;;;;;;5094541;28;20807;-82
2021/04/23 07:05:20;;;;;;;93.17;41.13;;;7.10;99.90;;;;;;5102187;28;20532;-82
2021/04/23 07:07:47;;;;;;;94.90;54.70;;;7.40;99.90;;;;;;5114190;28;20531;-81
2021/04/23 07:10:16;;;;;;;106.57;64.27;;;7.70;99.90;;;;;;5095301;28;20474;-84
2021/04/23 07:12:43;;;;;;;235.47;218.10;;;8.00;99.90;;;;;;5094649;28;20846;-83
2021/04/23 07:15:15;;;;;;;299.17;279.43;;;8.20;99.90;;;;;;5094180;28;20514;-82
2021/04/23 07:17:42;;;;;;;243.90;225.77;;;8.30;99.90;;;;;;5094868;28;20493;-81
2021/04/23 07:20:09;;;;;;;380.23;356.50;;;8.60;99.90;;;;;;5096213;28;20550;-83
2021/04/23 07:22:36;;;;;;;398.27;373.60;;;8.60;99.90;;;;;;5097526;28;20450;-82
2021/04/23 07:25:03;;;;;;;267.70;249.00;;;8.60;99.90;;;;;;5105992;28;20450;-83
2021/04/23 07:27:34;;;;;;;224.67;207.13;;;8.60;99.90;;;;;;5099165;28;20456;-81
2021/04/23 07:30:00;;;;;;;267.30;248.03;;;8.60;99.90;;;;;;5093724;28;20557;-81
2021/04/23 07:32:27;;;;;;;321.47;299.13;;;8.60;99.90;;;;;;5093514;28;20511;-80
2021/04/23 07:34:53;;;;;;;275.83;257.13;;;8.50;99.90;;;;;;5094271;28;20537;-81
2021/04/23 07:37:19;;;;;;;368.80;345.27;;;8.50;99.90;;;;;;5109705;28;20953;-81
2021/04/23 07:39:47;;;;;;;377.07;353.93;;;8.70;99.90;;;;;;5109113;28;21001;-81
2021/04/23 07:42:13;;;;;;;284.60;265.73;;;8.80;99.90;;;;;;5093804;28;20541;-83
2021/04/23 07:44:39;;;;;;;383.63;360.43;;;9.30;99.90;;;;;;5094841;28;20474;-81
2021/04/23 07:47:06;;;;;;;342.63;321.07;;;9.30;99.90;;;;;;5094300;28;20529;-81
2021/04/23 07:49:32;;;;;;;362.53;339.47;;;9.40;99.90;;;;;;5095103;28;21065;-81
2021/04/23 07:51:58;;;;;;;1999.90;999.90;;;9.80;99.90;;;;;;5094986;28;20454;-81
2021/04/23 07:54:25;;;;;;;32.40;6.83;;;10.30;99.90;;;;;;5095092;28;20458;-83
2021/04/23 07:56:52;;;;;;;12.40;3.07;;;10.80;99.90;;;;;;5094686;28;20576;-82
2021/04/23 07:59:18;;;;;;;15.57;3.53;;;11.90;99.90;;;;;;5097274;28;21032;-82
2021/04/23 08:01:44;;;;;;;14.53;3.83;;;12.30;99.90;;;;;;5096742;28;20550;-81
2021/04/23 08:04:11;;;;;;;13.70;3.37;;;12.10;99.90;;;;;;5097020;28;20463;-82
2021/04/23 08:06:37;;;;;;;11.60;3.40;;;11.80;99.90;;;;;;5096517;28;20464;-84
2021/04/23 08:09:04;;;;;;;12.70;3.63;;;11.60;99.90;;;;;;5096545;28;20537;-82
2021/04/23 08:11:30;;;;;;;13.57;3.77;;;11.50;99.90;;;;;;5097730;28;21045;-82
2021/04/23 08:13:58;;;;;;;13.73;3.77;;;11.60;99.90;;;;;;5109148;28;20915;-81
2021/04/23 08:16:24;;;;;;;10.23;3.30;;;11.50;99.90;;;;;;5095767;28;20492;-83
2021/04/23 08:18:53;;;;;;;31.50;10.50;;;11.60;99.90;;;;;;5096030;28;20489;-81
2021/04/23 08:21:19;;;;;;;11.43;3.73;;;13.40;99.90;;;;;;5095801;28;20659;-83
2021/04/23 08:23:47;;;;;;;12.40;3.30;;;14.90;99.90;;;;;;5095914;28;20454;-83
2021/04/23 08:26:13;;;;;;;12.37;2.70;;;17.40;99.90;;;;;;5099938;28;20445;-83
2021/04/23 08:28:40;;;;;;;12.50;3.80;;;19.00;98.30;;;;;;5105712;28;20592;-82
2021/04/23 08:31:07;;;;;;;14.03;2.73;;;17.60;89.00;;;;;;5090313;28;20486;-83
2021/04/23 08:33:34;;;;;;;14.60;3.10;;;16.90;89.10;;;;;;5095395;28;20519;-83
2021/04/23 08:36:00;;;;;;;11.17;3.30;;;16.70;90.70;;;;;;5095267;28;20537;-82
2021/04/23 08:38:27;;;;;;;9.83;3.10;;;15.80;90.40;;;;;;5096319;28;20844;-83
2021/04/23 08:40:54;;;;;;;9.20;3.40;;;15.60;91.60;;;;;;5096584;28;20989;-82
2021/04/23 08:43:21;;;;;;;11.30;3.30;;;15.80;90.70;;;;;;5101041;28;20540;-82
2021/04/23 08:45:48;;;;;;;10.13;3.73;;;15.70;91.70;;;;;;5116969;28;20937;-82
2021/04/23 08:48:16;;;;;;;13.50;4.20;;;15.50;91.10;;;;;;5101287;28;21023;-84
2021/04/23 08:50:43;;;;;;;12.93;3.63;;;14.10;90.60;;;;;;5109697;28;20492;-83
2021/04/23 08:53:11;;;;;;;9.10;3.20;;;13.80;92.70;;;;;;5112921;28;20534;-82
2021/04/23 08:55:38;;;;;;;13.00;3.83;;;14.00;93.90;;;;;;5101409;28;20458;-82
2021/04/23 08:58:04;;;;;;;12.23;2.50;;;14.40;95.30;;;;;;5114380;28;20477;-85
2021/04/23 09:00:31;;;;;;;9.77;3.60;;;16.50;93.70;;;;;;5109547;28;20466;-85
2021/04/23 09:02:57;;;;;;;9.03;2.80;;;18.30;91.80;;;;;;5098927;28;20497;-84
2021/04/23 09:05:24;;;;;;;10.27;2.90;;;20.10;87.60;;;;;;5101602;28;20438;-85
2021/04/23 09:08:03;;;;;;;7.80;2.13;;;21.60;86.60;;;;;;5098130;28;20446;-84
2021/04/23 09:10:30;;;;;;;6.93;2.83;;;23.40;78.00;;;;;;5107342;28;20554;-85
2021/04/23 09:13:15;;;;;;;8.10;2.73;;;;;;;;;;5114665;28;20836;-85
2021/04/23 09:15:43;;;;;;;8.90;2.93;;;24.20;59.00;;;;;;5114526;28;20441;-84
2021/04/23 09:18:12;;;;;;;10.03;3.40;;;24.30;61.60;;;;;;5122460;28;20575;-83
2021/04/23 09:20:42;;;;;;;7.70;2.50;;;25.60;59.30;;;;;;5107581;28;21007;-84
2021/04/23 09:23:11;;;;;;;8.60;3.10;;;26.20;57.00;;;;;;5102450;28;20472;-85
2021/04/23 09:25:40;;;;;;;9.57;3.27;;;27.30;53.80;;;;;;5110729;28;20200;-84
2021/04/23 09:28:07;;;;;;;8.20;3.20;;;26.00;49.30;;;;;;5096216;28;20513;-85
2021/04/23 09:30:33;;;;;;;10.03;3.53;;;26.60;49.60;;;;;;5099695;28;20996;-84
2021/04/23 09:33:00;;;;;;;10.37;2.53;;;26.30;52.20;;;;;;5114069;28;20445;-85
2021/04/23 09:35:26;;;;;;;8.70;2.80;;;27.20;51.30;;;;;;5097951;28;20500;-84
2021/04/23 09:37:59;;;;;;;10.53;2.80;;;27.10;50.20;;;;;;5112051;28;20495;-85
2021/04/23 09:40:31;;;;;;;9.10;2.93;;;27.40;49.10;;;;;;5105302;28;20478;-84
2021/04/23 09:42:59;;;;;;;6.60;2.43;;;27.60;47.60;;;;;;5096101;28;20874;-83
2021/04/23 09:45:28;;;;;;;10.83;4.10;;;27.60;48.60;;;;;;5098204;28;20462;-82
2021/04/23 09:47:55;;;;;;;9.03;4.07;;;27.60;46.60;;;;;;5101422;28;20498;-84
2021/04/23 09:50:28;;;;;;;11.17;4.43;;;28.30;48.50;;;;;;5096333;28;20563;-83
2021/04/23 09:52:58;;;;;;;10.63;4.57;;;28.20;44.40;;;;;;5095079;28;20969;-83
2021/04/23 09:55:27;;;;;;;10.07;3.67;;;27.50;44.10;;;;;;5095119;28;20462;-82
2021/04/23 09:57:55;;;;;;;8.30;3.53;;;26.70;44.30;;;;;;5095738;28;20482;-83
2021/04/23 10:00:25;;;;;;;8.90;3.40;;;28.10;45.80;;;;;;5095419;28;20474;-83
2021/04/23 10:02:54;;;;;;;9.10;3.07;;;28.30;45.40;;;;;;5095504;28;20450;-84
2021/04/23 10:05:35;;;;;;;7.47;3.77;;;29.30;46.70;;;;;;5090482;28;21088;-84
2021/04/23 10:08:06;;;;;;;9.07;3.40;;;27.90;42.80;;;;;;5097752;28;20802;-85
2021/04/23 10:10:32;;;;;;;7.47;3.10;;;28.00;44.50;;;;;;5097103;28;20999;-83
2021/04/23 10:13:02;;;;;;;8.40;4.13;;;29.20;43.60;;;;;;5095295;28;20469;-82
2021/04/23 10:15:32;;;;;;;10.00;4.43;;;29.00;43.50;;;;;;5096693;28;20461;-81
2021/04/23 10:18:00;;;;;;;11.00;4.70;;;28.10;42.70;;;;;;5094882;28;20452;-81
2021/04/23 10:20:29;;;;;;;8.03;3.87;;;28.00;45.60;;;;;;5096130;28;20470;-81
2021/04/23 10:22:57;;;;;;;11.80;4.50;;;29.30;46.40;;;;;;5108723;28;20474;-81
2021/04/23 10:25:26;;;;;;;11.20;4.23;;;28.70;42.10;;;;;;5101413;28;20454;-83
2021/04/23 10:27:54;;;;;;;12.93;4.77;;;28.30;42.70;;;;;;5095031;28;20533;-84
2021/04/23 10:30:22;;;;;;;9.13;3.60;;;28.60;42.90;;;;;;5095001;28;20478;-83
2021/04/23 10:32:50;;;;;;;7.77;3.37;;;28.00;42.60;;;;;;5106969;28;20453;-83
2021/04/23 10:35:17;;;;;;;10.10;3.60;;;28.70;43.50;;;;;;5114177;28;20460;-83
2021/04/23 10:37:45;;;;;;;10.60;4.17;;;28.80;44.90;;;;;;5109946;28;20553;-85
2021/04/23 10:40:14;;;;;;;11.47;4.50;;;29.10;44.00;;;;;;5095372;28;20476;-84
2021/04/23 10:42:51;;;;;;;9.03;3.50;;;29.40;40.70;;;;;;5095317;28;20472;-80
2021/04/23 10:45:33;;;;;;;7.77;4.47;;;30.70;43.00;;;;;;5093863;28;20756;-80
2021/04/23 10:48:01;;;;;;;10.63;5.57;;;30.10;41.80;;;;;;5096013;28;20457;-81
2021/04/23 10:50:37;;;;;;;11.83;4.60;;;30.30;41.70;;;;;;5093498;28;20513;-82
2021/04/23 10:53:07;;;;;;;13.63;5.17;;;30.60;42.50;;;;;;5090649;28;21010;-80
2021/04/23 10:55:38;;;;;;;11.67;4.40;;;30.30;40.90;;;;;;5095160;28;20446;-81
2021/04/23 10:58:06;;;;;;;8.93;4.10;;;30.70;42.70;;;;;;5095142;28;20470;-84
2021/04/23 11:00:36;;;;;;;7.63;2.20;;;29.60;39.70;;;;;;5096435;28;20561;-82
2021/04/23 11:03:28;;;;;;;11.13;4.47;;;29.80;51.30;;;;;;5096072;28;20446;-83
2021/04/23 11:05:57;;;;;;;9.07;3.90;;;30.10;43.60;;;;;;5107272;28;20541;-85
2021/04/23 11:08:25;;;;;;;10.93;4.47;;;30.80;40.20;;;;;;5096705;28;20536;-82
2021/04/23 11:11:12;;;;;;;6.73;3.53;;;31.90;41.50;;;;;;5096308;28;20478;-84
2021/04/23 11:13:41;;;;;;;9.67;4.40;;;31.60;38.30;;;;;;5085936;28;20449;-83
2021/04/23 11:16:30;;;;;;;8.63;3.77;;;31.40;38.40;;;;;;5095619;28;20442;-83
2021/04/23 11:18:59;;;;;;;10.67;3.63;;;31.70;38.50;;;;;;5097049;28;20917;-83
2021/04/23 11:21:41;;;;;;;8.07;4.20;;;32.30;38.50;;;;;;5096580;28;20496;-84
2021/04/23 11:24:14;;;;;;;8.93;3.67;;;32.50;38.10;;;;;;5075751;28;20442;-86
2021/04/23 11:27:06;;;;;;;8.73;3.80;;;31.40;36.40;;;;;;5075738;28;20451;-84
2021/04/23 11:30:00;;;;;;;8.90;3.00;;;31.50;39.40;;;;;;5076534;28;20497;-83
2021/04/23 11:32:27;;;;;;;8.40;3.63;;;32.80;38.00;;;;;;5092134;28;20453;-84
2021/04/23 11:34:55;;;;;;;8.03;3.13;;;33.70;38.10;;;;;;5119740;28;20449;-83
2021/04/23 11:37:23;;;;;;;8.90;3.63;;;34.10;37.50;;;;;;5121122;28;20485;-84
2021/04/23 11:39:55;;;;;;;8.20;3.37;;;34.50;36.90;;;;;;5119029;28;20572;-81
2021/04/23 11:42:22;;;;;;;9.10;4.30;;;33.10;37.70;;;;;;5112656;28;20536;-80
2021/04/23 11:44:55;;;;;;;8.30;3.70;;;33.70;37.90;;;;;;5099423;28;20481;-81
2021/04/23 11:47:33;;;;;;;7.30;3.50;;;33.20;35.40;;;;;;5098749;28;20450;-80
2021/04/23 11:50:05;;;;;;;8.60;3.33;;;33.00;35.30;;;;;;5099710;28;20482;-80
2021/04/23 11:52:32;;;;;;;8.10;3.77;;;32.40;36.80;;;;;;5095201;28;20537;-81
2021/04/23 11:54:58;;;;;;;7.87;3.37;;;32.60;38.60;;;;;;5102412;28;20452;-82
2021/04/23 11:57:28;;;;;;;8.17;3.63;;;32.60;34.70;;;;;;5098498;28;20482;-81
2021/04/23 12:00:07;;;;;;;8.23;4.27;;;33.30;36.30;;;;;;5100060;28;20511;-82
2021/04/23 12:02:40;;;;;;;7.87;3.77;;;32.70;34.10;;;;;;5104757;28;20502;-83
2021/04/23 12:05:11;;;;;;;9.10;3.80;;;33.20;37.60;;;;;;5119554;28;20463;-83
2021/04/23 12:07:45;;;;;;;7.60;3.43;;;33.10;35.00;;;;;;5103127;28;20533;-82
2021/04/23 12:10:15;;;;;;;9.67;3.53;;;34.50;35.20;;;;;;5100247;28;20476;-83
2021/04/23 12:12:44;;;;;;;10.77;4.57;;;32.90;34.80;;;;;;5099209;28;20510;-83
2021/04/23 12:15:24;;;;;;;10.03;4.40;;;32.70;35.20;;;;;;5099523;28;20450;-83
2021/04/23 12:17:50;;;;;;;7.73;3.53;;;33.10;35.90;;;;;;5098250;28;20482;-83
2021/04/23 12:20:22;;;;;;;9.80;3.47;;;33.30;35.90;;;;;;5099893;28;20495;-82
2021/04/23 12:22:50;;;;;;;8.67;3.70;;;33.90;37.50;;;;;;5102054;28;20457;-82
2021/04/23 12:25:23;;;;;;;7.50;3.57;;;34.70;36.80;;;;;;5104554;28;20499;-82
2021/04/23 12:27:49;;;;;;;8.97;3.40;;;35.10;33.80;;;;;;5106637;28;20468;-82
2021/04/23 12:30:30;;;;;;;7.27;3.50;;;35.20;33.50;;;;;;5101933;28;20465;-81
2021/04/23 12:32:57;;;;;;;10.53;4.07;;;33.90;33.30;;;;;;5095564;28;20458;-81
2021/04/23 12:35:33;;;;;;;7.83;3.80;;;33.80;34.60;;;;;;5098159;28;20520;-81